sensor_id;sensor_type;location;lat;lon;timestamp;P1;durP1;ratioP1;P2;durP2;ratioP2
10410;SDS011;5251;52.112;8.606;2023-02-25T00:01:59;11.90;;;2.90;;
10410;SDS011;5251;52.112;8.606;2023-02-25T00:04:28;9.13;;;2.33;;
10410;SDS011;5251;52.112;8.606;2023-02-25T00:06:53;10.75;;;2.63;;
10410;SDS011;5251;52.112;8.606;2023-02-25T00:09:19;8.73;;;2.83;;
10410;SDS011;5251;52.112;8.606;2023-02-25T00:11:45;8.73;;;2.33;;
10410;SDS011;5251;52.112;8.606;2023-02-25T00:14:11;10.50;;;2.85;;
10410;SDS011;5251;52.112;8.606;2023-02-25T00:16:36;10.02;;;2.85;;
10410;SDS011;5251;52.112;8.606;2023-02-25T00:19:02;7.90;;;2.33;;
10410;SDS011;5251;52.112;8.606;2023-02-25T00:21:28;10.77;;;2.92;;
10410;SDS011;5251;52.112;8.606;2023-02-25T00:23:54;9.93;;;2.63;;
10410;SDS011;5251;52.112;8.606;2023-02-25T00:26:20;8.10;;;2.45;;
10410;SDS011;5251;52.112;8.606;2023-02-25T00:28:46;9.70;;;2.40;;
10410;SDS011;5251;52.112;8.606;2023-02-25T00:31:17;12.52;;;2.92;;
10410;SDS011;5251;52.112;8.606;2023-02-25T00:33:44;8.68;;;2.70;;
10410;SDS011;5251;52.112;8.606;2023-02-25T00:36:13;10.07;;;2.72;;
10410;SDS011;5251;52.112;8.606;2023-02-25T00:39:02;9.15;;;2.25;;
10410;SDS011;5251;52.112;8.606;2023-02-25T00:41:28;8.90;;;2.60;;
10410;SDS011;5251;52.112;8.606;2023-02-25T00:43:57;10.10;;;2.60;;
10410;SDS011;5251;52.112;8.606;2023-02-25T00:46:24;7.25;;;2.03;;
10410;SDS011;5251;52.112;8.606;2023-02-25T00:48:51;10.85;;;2.70;;
10410;SDS011;5251;52.112;8.606;2023-02-25T00:51:18;6.00;;;2.10;;
10410;SDS011;5251;52.112;8.606;2023-02-25T00:53:47;11.57;;;2.53;;
10410;SDS011;5251;52.112;8.606;2023-02-25T00:56:13;8.73;;;2.45;;
10410;SDS011;5251;52.112;8.606;2023-02-25T00:58:41;8.20;;;2.40;;
10410;SDS011;5251;52.112;8.606;2023-02-25T01:01:16;7.47;;;1.92;;
10410;SDS011;5251;52.112;8.606;2023-02-25T01:03:44;10.38;;;2.63;;
10410;SDS011;5251;52.112;8.606;2023-02-25T01:06:10;8.55;;;2.78;;
10410;SDS011;5251;52.112;8.606;2023-02-25T01:08:36;9.38;;;2.50;;
10410;SDS011;5251;52.112;8.606;2023-02-25T01:13:51;10.85;;;2.60;;
10410;SDS011;5251;52.112;8.606;2023-02-25T01:16:18;11.23;;;2.92;;
10410;SDS011;5251;52.112;8.606;2023-02-25T01:18:45;9.85;;;2.90;;
10410;SDS011;5251;52.112;8.606;2023-02-25T01:21:15;8.98;;;2.72;;
10410;SDS011;5251;52.112;8.606;2023-02-25T01:23:43;9.90;;;3.47;;
10410;SDS011;5251;52.112;8.606;2023-02-25T01:26:09;9.25;;;3.00;;
10410;SDS011;5251;52.112;8.606;2023-02-25T01:28:35;9.73;;;3.00;;
10410;SDS011;5251;52.112;8.606;2023-02-25T01:31:01;6.63;;;2.85;;
10410;SDS011;5251;52.112;8.606;2023-02-25T01:33:26;8.90;;;2.88;;
10410;SDS011;5251;52.112;8.606;2023-02-25T01:35:52;11.18;;;2.97;;
10410;SDS011;5251;52.112;8.606;2023-02-25T01:38:17;11.98;;;3.00;;
10410;SDS011;5251;52.112;8.606;2023-02-25T01:40:43;10.52;;;2.80;;
10410;SDS011;5251;52.112;8.606;2023-02-25T01:43:13;7.55;;;2.78;;
10410;SDS011;5251;52.112;8.606;2023-02-25T01:45:43;13.05;;;3.33;;
10410;SDS011;5251;52.112;8.606;2023-02-25T01:48:13;10.20;;;2.83;;
10410;SDS011;5251;52.112;8.606;2023-02-25T01:50:42;10.35;;;2.90;;
10410;SDS011;5251;52.112;8.606;2023-02-25T01:53:13;10.57;;;3.30;;
10410;SDS011;5251;52.112;8.606;2023-02-25T01:55:41;9.77;;;3.05;;
10410;SDS011;5251;52.112;8.606;2023-02-25T01:58:07;8.95;;;2.97;;
10410;SDS011;5251;52.112;8.606;2023-02-25T02:00:34;9.30;;;2.88;;
10410;SDS011;5251;52.112;8.606;2023-02-25T02:03:00;9.90;;;2.45;;
10410;SDS011;5251;52.112;8.606;2023-02-25T02:05:29;16.52;;;3.13;;
10410;SDS011;5251;52.112;8.606;2023-02-25T02:08:06;9.95;;;3.10;;
10410;SDS011;5251;52.112;8.606;2023-02-25T02:10:33;9.55;;;2.42;;
10410;SDS011;5251;52.112;8.606;2023-02-25T02:12:58;11.25;;;3.45;;
10410;SDS011;5251;52.112;8.606;2023-02-25T02:15:24;11.27;;;3.00;;
10410;SDS011;5251;52.112;8.606;2023-02-25T02:18:00;8.30;;;3.03;;
10410;SDS011;5251;52.112;8.606;2023-02-25T02:37:55;8.00;;;2.60;;
10410;SDS011;5251;52.112;8.606;2023-02-25T02:40:38;6.82;;;2.15;;
10410;SDS011;5251;52.112;8.606;2023-02-25T02:45:58;7.60;;;2.33;;
10410;SDS011;5251;52.112;8.606;2023-02-25T02:48:33;9.75;;;2.65;;
10410;SDS011;5251;52.112;8.606;2023-02-25T02:51:12;12.55;;;2.83;;
10410;SDS011;5251;52.112;8.606;2023-02-25T02:53:56;8.65;;;2.95;;
10410;SDS011;5251;52.112;8.606;2023-02-25T02:56:24;9.60;;;2.80;;
10410;SDS011;5251;52.112;8.606;2023-02-25T02:58:56;8.27;;;2.47;;
10410;SDS011;5251;52.112;8.606;2023-02-25T03:01:30;8.38;;;2.53;;
10410;SDS011;5251;52.112;8.606;2023-02-25T03:04:04;8.98;;;2.78;;
10410;SDS011;5251;52.112;8.606;2023-02-25T03:06:34;8.15;;;2.42;;
10410;SDS011;5251;52.112;8.606;2023-02-25T03:09:06;6.53;;;2.20;;
10410;SDS011;5251;52.112;8.606;2023-02-25T03:11:46;8.20;;;2.47;;
10410;SDS011;5251;52.112;8.606;2023-02-25T03:14:12;10.75;;;2.55;;
10410;SDS011;5251;52.112;8.606;2023-02-25T03:16:49;7.85;;;2.20;;
10410;SDS011;5251;52.112;8.606;2023-02-25T03:19:32;6.03;;;2.40;;
10410;SDS011;5251;52.112;8.606;2023-02-25T03:22:07;8.93;;;2.58;;
10410;SDS011;5251;52.112;8.606;2023-02-25T03:24:47;4.32;;;1.90;;
10410;SDS011;5251;52.112;8.606;2023-02-25T03:30:20;7.35;;;2.50;;
10410;SDS011;5251;52.112;8.606;2023-02-25T03:33:02;7.15;;;2.38;;
10410;SDS011;5251;52.112;8.606;2023-02-25T03:35:50;5.97;;;2.30;;
10410;SDS011;5251;52.112;8.606;2023-02-25T03:38:19;6.55;;;2.40;;
10410;SDS011;5251;52.112;8.606;2023-02-25T03:40:48;6.32;;;2.10;;
10410;SDS011;5251;52.112;8.606;2023-02-25T03:43:15;7.68;;;2.30;;
10410;SDS011;5251;52.112;8.606;2023-02-25T03:45:46;8.45;;;2.67;;
10410;SDS011;5251;52.112;8.606;2023-02-25T03:48:12;7.57;;;2.28;;
10410;SDS011;5251;52.112;8.606;2023-02-25T03:50:48;8.60;;;2.40;;
10410;SDS011;5251;52.112;8.606;2023-02-25T03:53:23;9.73;;;2.47;;
10410;SDS011;5251;52.112;8.606;2023-02-25T03:55:49;4.22;;;1.80;;
10410;SDS011;5251;52.112;8.606;2023-02-25T03:58:15;7.82;;;2.00;;
10410;SDS011;5251;52.112;8.606;2023-02-25T04:00:41;9.18;;;2.63;;
10410;SDS011;5251;52.112;8.606;2023-02-25T04:03:10;5.20;;;2.05;;
10410;SDS011;5251;52.112;8.606;2023-02-25T04:05:37;9.30;;;2.70;;
10410;SDS011;5251;52.112;8.606;2023-02-25T04:08:03;8.80;;;2.75;;
10410;SDS011;5251;52.112;8.606;2023-02-25T04:10:40;6.28;;;2.45;;
10410;SDS011;5251;52.112;8.606;2023-02-25T04:13:08;8.60;;;1.98;;
10410;SDS011;5251;52.112;8.606;2023-02-25T04:15:34;6.20;;;2.25;;
10410;SDS011;5251;52.112;8.606;2023-02-25T04:18:00;7.45;;;2.15;;
10410;SDS011;5251;52.112;8.606;2023-02-25T04:20:27;9.60;;;2.08;;
10410;SDS011;5251;52.112;8.606;2023-02-25T04:22:57;5.95;;;1.90;;
10410;SDS011;5251;52.112;8.606;2023-02-25T04:25:23;9.00;;;2.45;;
10410;SDS011;5251;52.112;8.606;2023-02-25T04:27:49;7.13;;;2.55;;
10410;SDS011;5251;52.112;8.606;2023-02-25T04:30:14;6.13;;;2.25;;
10410;SDS011;5251;52.112;8.606;2023-02-25T04:32:40;3.47;;;1.85;;
10410;SDS011;5251;52.112;8.606;2023-02-25T04:35:06;5.32;;;1.88;;
10410;SDS011;5251;52.112;8.606;2023-02-25T04:37:36;4.90;;;1.80;;
10410;SDS011;5251;52.112;8.606;2023-02-25T04:40:02;5.93;;;2.00;;
10410;SDS011;5251;52.112;8.606;2023-02-25T04:42:29;4.53;;;1.73;;
10410;SDS011;5251;52.112;8.606;2023-02-25T04:44:54;6.30;;;2.08;;
10410;SDS011;5251;52.112;8.606;2023-02-25T04:47:20;3.97;;;2.00;;
10410;SDS011;5251;52.112;8.606;2023-02-25T04:49:45;6.82;;;2.47;;
10410;SDS011;5251;52.112;8.606;2023-02-25T04:52:11;5.95;;;2.00;;
10410;SDS011;5251;52.112;8.606;2023-02-25T04:54:38;4.20;;;1.92;;
10410;SDS011;5251;52.112;8.606;2023-02-25T04:57:04;8.50;;;2.30;;
10410;SDS011;5251;52.112;8.606;2023-02-25T04:59:31;6.40;;;1.95;;
10410;SDS011;5251;52.112;8.606;2023-02-25T05:01:56;3.97;;;1.95;;
10410;SDS011;5251;52.112;8.606;2023-02-25T05:04:22;7.70;;;2.10;;
10410;SDS011;5251;52.112;8.606;2023-02-25T05:06:47;5.43;;;1.63;;
10410;SDS011;5251;52.112;8.606;2023-02-25T05:09:13;4.03;;;1.65;;
10410;SDS011;5251;52.112;8.606;2023-02-25T05:11:38;5.35;;;1.83;;
10410;SDS011;5251;52.112;8.606;2023-02-25T05:14:04;3.25;;;1.60;;
10410;SDS011;5251;52.112;8.606;2023-02-25T05:16:30;2.63;;;1.45;;
10410;SDS011;5251;52.112;8.606;2023-02-25T05:18:55;3.15;;;1.45;;
10410;SDS011;5251;52.112;8.606;2023-02-25T05:21:22;6.35;;;1.48;;
10410;SDS011;5251;52.112;8.606;2023-02-25T05:23:50;5.07;;;1.30;;
10410;SDS011;5251;52.112;8.606;2023-02-25T05:26:17;3.35;;;1.30;;
10410;SDS011;5251;52.112;8.606;2023-02-25T05:28:47;4.47;;;1.50;;
10410;SDS011;5251;52.112;8.606;2023-02-25T05:31:13;5.50;;;1.33;;
10410;SDS011;5251;52.112;8.606;2023-02-25T05:33:39;2.28;;;1.20;;
10410;SDS011;5251;52.112;8.606;2023-02-25T05:36:06;2.65;;;1.33;;
10410;SDS011;5251;52.112;8.606;2023-02-25T05:38:35;4.47;;;1.67;;
10410;SDS011;5251;52.112;8.606;2023-02-25T05:41:01;5.65;;;1.70;;
10410;SDS011;5251;52.112;8.606;2023-02-25T05:43:28;5.72;;;1.52;;
10410;SDS011;5251;52.112;8.606;2023-02-25T05:45:54;2.50;;;1.38;;
10410;SDS011;5251;52.112;8.606;2023-02-25T05:48:21;5.63;;;1.60;;
10410;SDS011;5251;52.112;8.606;2023-02-25T05:50:48;3.53;;;1.42;;
10410;SDS011;5251;52.112;8.606;2023-02-25T05:53:15;4.05;;;1.20;;
10410;SDS011;5251;52.112;8.606;2023-02-25T05:55:41;3.05;;;1.27;;
10410;SDS011;5251;52.112;8.606;2023-02-25T05:58:07;2.67;;;1.30;;
10410;SDS011;5251;52.112;8.606;2023-02-25T06:00:33;3.50;;;1.30;;
10410;SDS011;5251;52.112;8.606;2023-02-25T06:02:58;4.25;;;1.42;;
10410;SDS011;5251;52.112;8.606;2023-02-25T06:05:24;4.72;;;1.33;;
10410;SDS011;5251;52.112;8.606;2023-02-25T06:07:50;2.13;;;1.00;;
10410;SDS011;5251;52.112;8.606;2023-02-25T06:10:16;4.60;;;1.48;;
10410;SDS011;5251;52.112;8.606;2023-02-25T06:12:41;3.17;;;1.20;;
10410;SDS011;5251;52.112;8.606;2023-02-25T06:15:07;6.68;;;1.52;;
10410;SDS011;5251;52.112;8.606;2023-02-25T06:17:33;4.22;;;1.33;;
10410;SDS011;5251;52.112;8.606;2023-02-25T06:19:59;3.28;;;1.33;;
10410;SDS011;5251;52.112;8.606;2023-02-25T06:22:25;2.22;;;1.23;;
10410;SDS011;5251;52.112;8.606;2023-02-25T06:24:51;3.92;;;1.40;;
10410;SDS011;5251;52.112;8.606;2023-02-25T06:27:16;4.05;;;1.35;;
10410;SDS011;5251;52.112;8.606;2023-02-25T06:29:42;3.88;;;1.48;;
10410;SDS011;5251;52.112;8.606;2023-02-25T06:32:12;4.07;;;1.45;;
10410;SDS011;5251;52.112;8.606;2023-02-25T06:34:38;4.03;;;1.42;;
10410;SDS011;5251;52.112;8.606;2023-02-25T06:37:04;4.07;;;1.40;;
10410;SDS011;5251;52.112;8.606;2023-02-25T06:39:30;4.07;;;1.30;;
10410;SDS011;5251;52.112;8.606;2023-02-25T06:41:56;4.78;;;1.92;;
10410;SDS011;5251;52.112;8.606;2023-02-25T06:44:22;3.25;;;1.58;;
10410;SDS011;5251;52.112;8.606;2023-02-25T06:46:49;2.65;;;1.40;;
10410;SDS011;5251;52.112;8.606;2023-02-25T06:49:15;3.70;;;1.70;;
10410;SDS011;5251;52.112;8.606;2023-02-25T06:51:41;4.78;;;1.55;;
10410;SDS011;5251;52.112;8.606;2023-02-25T06:54:07;4.95;;;1.40;;
10410;SDS011;5251;52.112;8.606;2023-02-25T06:56:32;6.72;;;2.00;;
10410;SDS011;5251;52.112;8.606;2023-02-25T06:58:58;3.22;;;1.45;;
10410;SDS011;5251;52.112;8.606;2023-02-25T07:01:24;4.35;;;1.70;;
10410;SDS011;5251;52.112;8.606;2023-02-25T07:03:50;7.10;;;2.38;;
10410;SDS011;5251;52.112;8.606;2023-02-25T07:06:16;3.15;;;1.20;;
10410;SDS011;5251;52.112;8.606;2023-02-25T07:08:42;4.93;;;1.67;;
10410;SDS011;5251;52.112;8.606;2023-02-25T07:13:43;3.45;;;1.40;;
10410;SDS011;5251;52.112;8.606;2023-02-25T07:16:11;4.18;;;1.58;;
10410;SDS011;5251;52.112;8.606;2023-02-25T07:18:39;5.50;;;1.40;;
10410;SDS011;5251;52.112;8.606;2023-02-25T07:21:08;4.72;;;1.55;;
10410;SDS011;5251;52.112;8.606;2023-02-25T07:23:36;2.60;;;1.30;;
10410;SDS011;5251;52.112;8.606;2023-02-25T07:26:05;3.22;;;1.33;;
10410;SDS011;5251;52.112;8.606;2023-02-25T07:28:33;4.68;;;1.30;;
10410;SDS011;5251;52.112;8.606;2023-02-25T07:31:02;2.85;;;1.27;;
10410;SDS011;5251;52.112;8.606;2023-02-25T07:33:31;2.67;;;1.52;;
10410;SDS011;5251;52.112;8.606;2023-02-25T07:35:57;4.10;;;1.75;;
10410;SDS011;5251;52.112;8.606;2023-02-25T07:38:22;3.55;;;1.33;;
10410;SDS011;5251;52.112;8.606;2023-02-25T07:40:48;3.55;;;1.40;;
10410;SDS011;5251;52.112;8.606;2023-02-25T07:43:14;3.53;;;1.17;;
10410;SDS011;5251;52.112;8.606;2023-02-25T07:45:40;4.75;;;1.45;;
10410;SDS011;5251;52.112;8.606;2023-02-25T07:48:05;2.67;;;1.13;;
10410;SDS011;5251;52.112;8.606;2023-02-25T07:50:31;4.03;;;1.15;;
10410;SDS011;5251;52.112;8.606;2023-02-25T07:52:57;4.07;;;1.40;;
10410;SDS011;5251;52.112;8.606;2023-02-25T07:55:23;3.95;;;1.30;;
10410;SDS011;5251;52.112;8.606;2023-02-25T07:57:49;4.07;;;1.05;;
10410;SDS011;5251;52.112;8.606;2023-02-25T08:00:14;4.18;;;1.15;;
10410;SDS011;5251;52.112;8.606;2023-02-25T08:02:42;5.75;;;1.20;;
10410;SDS011;5251;52.112;8.606;2023-02-25T08:05:08;3.00;;;1.10;;
10410;SDS011;5251;52.112;8.606;2023-02-25T08:07:34;2.72;;;1.33;;
10410;SDS011;5251;52.112;8.606;2023-02-25T08:10:00;3.88;;;1.40;;
10410;SDS011;5251;52.112;8.606;2023-02-25T08:12:26;2.80;;;1.30;;
10410;SDS011;5251;52.112;8.606;2023-02-25T08:14:52;2.65;;;1.20;;
10410;SDS011;5251;52.112;8.606;2023-02-25T08:17:17;3.75;;;1.30;;
10410;SDS011;5251;52.112;8.606;2023-02-25T08:19:43;3.97;;;1.48;;
10410;SDS011;5251;52.112;8.606;2023-02-25T08:22:08;3.15;;;1.23;;
10410;SDS011;5251;52.112;8.606;2023-02-25T08:24:37;2.20;;;1.48;;
10410;SDS011;5251;52.112;8.606;2023-02-25T08:27:03;3.83;;;1.33;;
10410;SDS011;5251;52.112;8.606;2023-02-25T08:29:31;4.13;;;1.77;;
10410;SDS011;5251;52.112;8.606;2023-02-25T08:31:57;3.35;;;1.30;;
10410;SDS011;5251;52.112;8.606;2023-02-25T08:34:23;3.78;;;1.27;;
10410;SDS011;5251;52.112;8.606;2023-02-25T08:36:49;3.70;;;1.45;;
10410;SDS011;5251;52.112;8.606;2023-02-25T08:39:15;4.28;;;1.30;;
10410;SDS011;5251;52.112;8.606;2023-02-25T08:41:42;4.45;;;1.75;;
10410;SDS011;5251;52.112;8.606;2023-02-25T08:44:08;3.90;;;1.45;;
10410;SDS011;5251;52.112;8.606;2023-02-25T08:46:33;2.92;;;1.15;;
10410;SDS011;5251;52.112;8.606;2023-02-25T08:48:59;3.83;;;1.40;;
10410;SDS011;5251;52.112;8.606;2023-02-25T08:51:25;4.82;;;1.75;;
10410;SDS011;5251;52.112;8.606;2023-02-25T08:54:01;4.60;;;1.40;;
10410;SDS011;5251;52.112;8.606;2023-02-25T08:56:29;4.88;;;1.30;;
10410;SDS011;5251;52.112;8.606;2023-02-25T08:58:55;5.53;;;1.70;;
10410;SDS011;5251;52.112;8.606;2023-02-25T09:01:21;5.28;;;1.25;;
10410;SDS011;5251;52.112;8.606;2023-02-25T09:03:47;3.60;;;1.38;;
10410;SDS011;5251;52.112;8.606;2023-02-25T09:06:23;2.70;;;1.23;;
10410;SDS011;5251;52.112;8.606;2023-02-25T09:08:51;4.55;;;1.35;;
10410;SDS011;5251;52.112;8.606;2023-02-25T09:11:24;5.85;;;1.50;;
10410;SDS011;5251;52.112;8.606;2023-02-25T09:13:50;4.97;;;1.58;;
10410;SDS011;5251;52.112;8.606;2023-02-25T09:16:17;4.85;;;1.60;;
10410;SDS011;5251;52.112;8.606;2023-02-25T09:18:44;5.90;;;1.55;;
10410;SDS011;5251;52.112;8.606;2023-02-25T09:21:11;8.27;;;1.70;;
10410;SDS011;5251;52.112;8.606;2023-02-25T09:23:37;5.25;;;1.40;;
10410;SDS011;5251;52.112;8.606;2023-02-25T09:26:03;3.33;;;1.45;;
10410;SDS011;5251;52.112;8.606;2023-02-25T09:28:29;6.28;;;1.45;;
10410;SDS011;5251;52.112;8.606;2023-02-25T09:30:56;6.90;;;2.15;;
10410;SDS011;5251;52.112;8.606;2023-02-25T09:33:22;3.63;;;1.60;;
10410;SDS011;5251;52.112;8.606;2023-02-25T09:35:48;4.82;;;1.58;;
10410;SDS011;5251;52.112;8.606;2023-02-25T09:38:14;6.78;;;1.52;;
10410;SDS011;5251;52.112;8.606;2023-02-25T09:40:40;5.75;;;1.95;;
10410;SDS011;5251;52.112;8.606;2023-02-25T09:45:44;4.97;;;1.60;;
10410;SDS011;5251;52.112;8.606;2023-02-25T09:48:18;4.18;;;1.60;;
10410;SDS011;5251;52.112;8.606;2023-02-25T09:50:50;4.80;;;1.40;;
10410;SDS011;5251;52.112;8.606;2023-02-25T09:53:22;4.72;;;1.60;;
10410;SDS011;5251;52.112;8.606;2023-02-25T09:55:53;7.50;;;1.67;;
10410;SDS011;5251;52.112;8.606;2023-02-25T09:58:23;5.38;;;1.38;;
10410;SDS011;5251;52.112;8.606;2023-02-25T10:03:37;9.73;;;1.63;;
10410;SDS011;5251;52.112;8.606;2023-02-25T10:06:09;4.20;;;1.17;;
10410;SDS011;5251;52.112;8.606;2023-02-25T10:08:54;3.33;;;1.65;;
10410;SDS011;5251;52.112;8.606;2023-02-25T10:11:38;3.95;;;1.38;;
10410;SDS011;5251;52.112;8.606;2023-02-25T10:17:09;3.97;;;1.45;;
10410;SDS011;5251;52.112;8.606;2023-02-25T10:25:13;3.88;;;1.10;;
10410;SDS011;5251;52.112;8.606;2023-02-25T10:27:46;5.88;;;1.42;;
10410;SDS011;5251;52.112;8.606;2023-02-25T10:30:21;5.97;;;1.60;;
10410;SDS011;5251;52.112;8.606;2023-02-25T10:32:50;4.50;;;1.30;;
10410;SDS011;5251;52.112;8.606;2023-02-25T10:37:44;3.63;;;1.05;;
10410;SDS011;5251;52.112;8.606;2023-02-25T10:40:12;1.77;;;0.95;;
10410;SDS011;5251;52.112;8.606;2023-02-25T10:42:41;3.08;;;1.27;;
10410;SDS011;5251;52.112;8.606;2023-02-25T10:45:11;3.63;;;1.52;;
10410;SDS011;5251;52.112;8.606;2023-02-25T10:47:41;3.08;;;1.00;;
10410;SDS011;5251;52.112;8.606;2023-02-25T10:53:01;2.47;;;1.08;;
10410;SDS011;5251;52.112;8.606;2023-02-25T11:01:19;3.17;;;1.20;;
10410;SDS011;5251;52.112;8.606;2023-02-25T11:06:21;2.92;;;1.10;;
10410;SDS011;5251;52.112;8.606;2023-02-25T11:08:49;4.18;;;1.00;;
10410;SDS011;5251;52.112;8.606;2023-02-25T11:11:17;1.77;;;0.80;;
10410;SDS011;5251;52.112;8.606;2023-02-25T11:13:58;5.22;;;1.15;;
10410;SDS011;5251;52.112;8.606;2023-02-25T11:16:30;2.83;;;1.15;;
10410;SDS011;5251;52.112;8.606;2023-02-25T11:19:00;2.58;;;1.20;;
10410;SDS011;5251;52.112;8.606;2023-02-25T11:21:30;2.60;;;1.10;;
10410;SDS011;5251;52.112;8.606;2023-02-25T11:24:00;3.30;;;0.80;;
10410;SDS011;5251;52.112;8.606;2023-02-25T11:26:30;2.85;;;1.00;;
10410;SDS011;5251;52.112;8.606;2023-02-25T11:29:04;1.77;;;0.77;;
10410;SDS011;5251;52.112;8.606;2023-02-25T11:31:35;1.65;;;0.90;;
10410;SDS011;5251;52.112;8.606;2023-02-25T11:34:06;2.15;;;0.95;;
10410;SDS011;5251;52.112;8.606;2023-02-25T11:36:48;1.83;;;0.80;;
10410;SDS011;5251;52.112;8.606;2023-02-25T11:39:24;2.38;;;0.90;;
10410;SDS011;5251;52.112;8.606;2023-02-25T11:41:56;2.10;;;1.08;;
10410;SDS011;5251;52.112;8.606;2023-02-25T11:44:29;2.20;;;0.98;;
10410;SDS011;5251;52.112;8.606;2023-02-25T12:00:34;2.35;;;0.95;;
10410;SDS011;5251;52.112;8.606;2023-02-25T12:09:16;3.38;;;1.08;;
10410;SDS011;5251;52.112;8.606;2023-02-25T12:23:13;2.80;;;0.70;;
10410;SDS011;5251;52.112;8.606;2023-02-25T12:25:51;1.83;;;0.82;;
10410;SDS011;5251;52.112;8.606;2023-02-25T12:58:11;1.50;;;0.90;;
10410;SDS011;5251;52.112;8.606;2023-02-25T13:03:38;4.88;;;1.33;;
10410;SDS011;5251;52.112;8.606;2023-02-25T13:09:14;1.90;;;0.90;;
10410;SDS011;5251;52.112;8.606;2023-02-25T13:19:47;1.23;;;1.00;;
10410;SDS011;5251;52.112;8.606;2023-02-25T13:31:14;2.25;;;1.00;;
10410;SDS011;5251;52.112;8.606;2023-02-25T13:54:02;2.00;;;1.02;;
10410;SDS011;5251;52.112;8.606;2023-02-25T14:08:23;2.85;;;0.98;;
10410;SDS011;5251;52.112;8.606;2023-02-25T14:11:01;1.67;;;0.98;;
10410;SDS011;5251;52.112;8.606;2023-02-25T14:17:24;1.25;;;1.00;;
10410;SDS011;5251;52.112;8.606;2023-02-25T14:19:33;1.10;;;1.00;;
10410;SDS011;5251;52.112;8.606;2023-02-25T14:22:25;1.75;;;1.00;;
10410;SDS011;5251;52.112;8.606;2023-02-25T14:36:21;2.58;;;1.10;;
10410;SDS011;5251;52.112;8.606;2023-02-25T14:39:02;5.35;;;1.35;;
10410;SDS011;5251;52.112;8.606;2023-02-25T14:45:04;4.68;;;1.15;;
10410;SDS011;5251;52.112;8.606;2023-02-25T14:47:50;1.35;;;0.82;;
10410;SDS011;5251;52.112;8.606;2023-02-25T14:55:37;2.03;;;1.10;;
10410;SDS011;5251;52.112;8.606;2023-02-25T15:11:49;2.60;;;1.08;;
10410;SDS011;5251;52.112;8.606;2023-02-25T15:17:26;3.25;;;1.20;;
10410;SDS011;5251;52.112;8.606;2023-02-25T15:20:12;2.60;;;1.13;;
10410;SDS011;5251;52.112;8.606;2023-02-25T15:23:04;4.07;;;1.20;;
10410;SDS011;5251;52.112;8.606;2023-02-25T15:38:51;1.98;;;1.30;;
10410;SDS011;5251;52.112;8.606;2023-02-25T15:41:29;2.30;;;1.17;;
10410;SDS011;5251;52.112;8.606;2023-02-25T15:46:36;3.08;;;1.17;;
10410;SDS011;5251;52.112;8.606;2023-02-25T15:56:54;2.83;;;1.25;;
10410;SDS011;5251;52.112;8.606;2023-02-25T15:59:38;2.85;;;1.50;;
10410;SDS011;5251;52.112;8.606;2023-02-25T16:07:29;2.13;;;1.13;;
10410;SDS011;5251;52.112;8.606;2023-02-25T16:09:59;1.63;;;1.15;;
10410;SDS011;5251;52.112;8.606;2023-02-25T16:12:33;2.78;;;1.60;;
10410;SDS011;5251;52.112;8.606;2023-02-25T16:15:02;2.78;;;1.20;;
10410;SDS011;5251;52.112;8.606;2023-02-25T16:17:29;3.10;;;1.15;;
10410;SDS011;5251;52.112;8.606;2023-02-25T16:19:59;3.05;;;1.20;;
10410;SDS011;5251;52.112;8.606;2023-02-25T16:22:38;4.82;;;1.38;;
10410;SDS011;5251;52.112;8.606;2023-02-25T16:25:10;3.45;;;1.48;;
10410;SDS011;5251;52.112;8.606;2023-02-25T16:28:00;2.28;;;1.20;;
10410;SDS011;5251;52.112;8.606;2023-02-25T16:30:42;2.38;;;1.33;;
10410;SDS011;5251;52.112;8.606;2023-02-25T16:33:17;2.95;;;1.52;;
10410;SDS011;5251;52.112;8.606;2023-02-25T16:36:15;2.90;;;1.17;;
10410;SDS011;5251;52.112;8.606;2023-02-25T16:41:53;2.45;;;1.23;;
10410;SDS011;5251;52.112;8.606;2023-02-25T16:44:20;2.45;;;1.30;;
10410;SDS011;5251;52.112;8.606;2023-02-25T16:46:51;4.00;;;1.63;;
10410;SDS011;5251;52.112;8.606;2023-02-25T16:49:39;4.28;;;1.35;;
10410;SDS011;5251;52.112;8.606;2023-02-25T16:52:06;4.05;;;1.52;;
10410;SDS011;5251;52.112;8.606;2023-02-25T16:54:32;2.67;;;1.23;;
10410;SDS011;5251;52.112;8.606;2023-02-25T16:57:03;2.42;;;1.33;;
10410;SDS011;5251;52.112;8.606;2023-02-25T16:59:32;3.85;;;1.30;;
10410;SDS011;5251;52.112;8.606;2023-02-25T17:02:00;4.40;;;1.77;;
10410;SDS011;5251;52.112;8.606;2023-02-25T17:04:33;3.58;;;1.63;;
10410;SDS011;5251;52.112;8.606;2023-02-25T17:09:50;4.35;;;1.63;;
10410;SDS011;5251;52.112;8.606;2023-02-25T17:14:55;5.45;;;1.75;;
10410;SDS011;5251;52.112;8.606;2023-02-25T17:17:24;2.83;;;1.38;;
10410;SDS011;5251;52.112;8.606;2023-02-25T17:19:53;3.65;;;1.42;;
10410;SDS011;5251;52.112;8.606;2023-02-25T17:22:21;5.10;;;1.50;;
10410;SDS011;5251;52.112;8.606;2023-02-25T17:24:48;2.53;;;1.50;;
10410;SDS011;5251;52.112;8.606;2023-02-25T17:27:17;2.60;;;1.35;;
10410;SDS011;5251;52.112;8.606;2023-02-25T17:29:45;3.15;;;1.40;;
10410;SDS011;5251;52.112;8.606;2023-02-25T17:32:12;1.63;;;1.30;;
10410;SDS011;5251;52.112;8.606;2023-02-25T17:34:46;5.25;;;1.27;;
10410;SDS011;5251;52.112;8.606;2023-02-25T17:37:13;2.58;;;1.40;;
10410;SDS011;5251;52.112;8.606;2023-02-25T17:39:40;2.33;;;1.23;;
10410;SDS011;5251;52.112;8.606;2023-02-25T17:42:27;2.50;;;1.40;;
10410;SDS011;5251;52.112;8.606;2023-02-25T17:45:02;4.95;;;1.48;;
10410;SDS011;5251;52.112;8.606;2023-02-25T17:47:31;3.13;;;1.40;;
10410;SDS011;5251;52.112;8.606;2023-02-25T17:52:53;3.28;;;1.48;;
10410;SDS011;5251;52.112;8.606;2023-02-25T17:55:24;2.55;;;1.50;;
10410;SDS011;5251;52.112;8.606;2023-02-25T17:57:52;2.72;;;1.40;;
10410;SDS011;5251;52.112;8.606;2023-02-25T18:00:24;3.30;;;1.60;;
10410;SDS011;5251;52.112;8.606;2023-02-25T18:03:07;2.28;;;1.40;;
10410;SDS011;5251;52.112;8.606;2023-02-25T18:05:38;3.33;;;1.50;;
10410;SDS011;5251;52.112;8.606;2023-02-25T18:08:18;3.38;;;1.50;;
10410;SDS011;5251;52.112;8.606;2023-02-25T18:11:35;2.92;;;1.50;;
10410;SDS011;5251;52.112;8.606;2023-02-25T18:13:46;4.30;;;1.92;;
10410;SDS011;5251;52.112;8.606;2023-02-25T18:18:40;3.25;;;1.90;;
10410;SDS011;5251;52.112;8.606;2023-02-25T18:21:06;4.10;;;1.50;;
10410;SDS011;5251;52.112;8.606;2023-02-25T18:23:34;4.65;;;2.10;;
10410;SDS011;5251;52.112;8.606;2023-02-25T18:28:35;4.82;;;1.70;;
10410;SDS011;5251;52.112;8.606;2023-02-25T18:31:00;5.18;;;2.22;;
10410;SDS011;5251;52.112;8.606;2023-02-25T18:33:26;4.38;;;2.25;;
10410;SDS011;5251;52.112;8.606;2023-02-25T18:35:51;3.83;;;2.05;;
10410;SDS011;5251;52.112;8.606;2023-02-25T18:38:21;6.22;;;2.85;;
10410;SDS011;5251;52.112;8.606;2023-02-25T18:40:48;6.10;;;2.65;;
10410;SDS011;5251;52.112;8.606;2023-02-25T18:43:20;5.90;;;2.58;;
10410;SDS011;5251;52.112;8.606;2023-02-25T18:45:48;4.28;;;1.80;;
10410;SDS011;5251;52.112;8.606;2023-02-25T18:48:13;5.22;;;1.90;;
10410;SDS011;5251;52.112;8.606;2023-02-25T18:50:39;4.95;;;1.80;;
10410;SDS011;5251;52.112;8.606;2023-02-25T18:53:21;3.67;;;1.88;;
10410;SDS011;5251;52.112;8.606;2023-02-25T18:55:49;3.60;;;1.67;;
10410;SDS011;5251;52.112;8.606;2023-02-25T18:58:16;3.50;;;1.80;;
10410;SDS011;5251;52.112;8.606;2023-02-25T19:00:43;2.97;;;1.60;;
10410;SDS011;5251;52.112;8.606;2023-02-25T19:03:16;5.47;;;1.58;;
10410;SDS011;5251;52.112;8.606;2023-02-25T19:05:48;3.42;;;1.67;;
10410;SDS011;5251;52.112;8.606;2023-02-25T19:08:14;6.35;;;2.20;;
10410;SDS011;5251;52.112;8.606;2023-02-25T19:10:41;6.43;;;2.30;;
10410;SDS011;5251;52.112;8.606;2023-02-25T19:15:42;4.72;;;2.00;;
10410;SDS011;5251;52.112;8.606;2023-02-25T19:18:11;6.20;;;2.13;;
10410;SDS011;5251;52.112;8.606;2023-02-25T19:20:38;5.40;;;1.92;;
10410;SDS011;5251;52.112;8.606;2023-02-25T19:23:07;5.32;;;1.85;;
10410;SDS011;5251;52.112;8.606;2023-02-25T19:25:39;4.13;;;1.60;;
10410;SDS011;5251;52.112;8.606;2023-02-25T19:28:05;4.40;;;1.85;;
10410;SDS011;5251;52.112;8.606;2023-02-25T19:30:32;3.72;;;1.30;;
10410;SDS011;5251;52.112;8.606;2023-02-25T19:33:01;3.10;;;1.48;;
10410;SDS011;5251;52.112;8.606;2023-02-25T19:35:28;2.92;;;1.50;;